sensor_id;sensor_type;location;lat;lon;timestamp;P1;durP1;ratioP1;P2;durP2;ratioP2
75459;SDS011;64039;53.060;9.342;2023-07-13T00:01:12;3.03;;;2.22;;
75459;SDS011;64039;53.060;9.342;2023-07-13T00:03:38;2.10;;;1.90;;
75459;SDS011;64039;53.060;9.342;2023-07-13T00:06:06;4.22;;;1.60;;
75459;SDS011;64039;53.060;9.342;2023-07-13T00:08:32;3.95;;;2.17;;
75459;SDS011;64039;53.060;9.342;2023-07-13T00:10:59;3.28;;;1.92;;
75459;SDS011;64039;53.060;9.342;2023-07-13T00:13:26;2.15;;;1.83;;
75459;SDS011;64039;53.060;9.342;2023-07-13T00:15:52;3.08;;;1.60;;
75459;SDS011;64039;53.060;9.342;2023-07-13T00:18:19;2.83;;;1.77;;
75459;SDS011;64039;53.060;9.342;2023-07-13T00:20:45;3.42;;;1.70;;
75459;SDS011;64039;53.060;9.342;2023-07-13T00:23:11;5.57;;;1.58;;
75459;SDS011;64039;53.060;9.342;2023-07-13T00:25:36;1.88;;;1.23;;
75459;SDS011;64039;53.060;9.342;2023-07-13T00:28:02;3.17;;;1.80;;
75459;SDS011;64039;53.060;9.342;2023-07-13T00:30:28;3.53;;;1.80;;
75459;SDS011;64039;53.060;9.342;2023-07-13T00:32:53;2.05;;;1.60;;
75459;SDS011;64039;53.060;9.342;2023-07-13T00:35:19;2.30;;;1.67;;
75459;SDS011;64039;53.060;9.342;2023-07-13T00:37:44;2.92;;;1.70;;
75459;SDS011;64039;53.060;9.342;2023-07-13T00:40:11;3.53;;;1.90;;
75459;SDS011;64039;53.060;9.342;2023-07-13T00:42:38;4.13;;;1.83;;
75459;SDS011;64039;53.060;9.342;2023-07-13T00:45:04;4.18;;;1.90;;
75459;SDS011;64039;53.060;9.342;2023-07-13T00:47:30;4.47;;;1.90;;
75459;SDS011;64039;53.060;9.342;2023-07-13T00:49:56;4.63;;;2.03;;
75459;SDS011;64039;53.060;9.342;2023-07-13T00:52:21;9.18;;;2.83;;
75459;SDS011;64039;53.060;9.342;2023-07-13T00:54:47;3.30;;;2.22;;
75459;SDS011;64039;53.060;9.342;2023-07-13T00:57:19;3.45;;;2.20;;
75459;SDS011;64039;53.060;9.342;2023-07-13T01:02:12;5.55;;;2.50;;
75459;SDS011;64039;53.060;9.342;2023-07-13T01:04:38;3.95;;;2.30;;
75459;SDS011;64039;53.060;9.342;2023-07-13T01:07:03;4.65;;;2.38;;
75459;SDS011;64039;53.060;9.342;2023-07-13T01:09:31;3.55;;;2.45;;
75459;SDS011;64039;53.060;9.342;2023-07-13T01:11:56;8.85;;;2.42;;
75459;SDS011;64039;53.060;9.342;2023-07-13T01:14:22;5.65;;;2.50;;
75459;SDS011;64039;53.060;9.342;2023-07-13T01:16:47;3.00;;;2.30;;
75459;SDS011;64039;53.060;9.342;2023-07-13T01:19:21;4.90;;;2.30;;
75459;SDS011;64039;53.060;9.342;2023-07-13T01:21:51;7.18;;;2.47;;
75459;SDS011;64039;53.060;9.342;2023-07-13T01:24:18;5.40;;;2.67;;
75459;SDS011;64039;53.060;9.342;2023-07-13T01:26:43;4.70;;;2.83;;
75459;SDS011;64039;53.060;9.342;2023-07-13T01:29:09;6.78;;;2.40;;
75459;SDS011;64039;53.060;9.342;2023-07-13T01:31:34;4.43;;;2.28;;
75459;SDS011;64039;53.060;9.342;2023-07-13T01:34:00;5.43;;;2.25;;
75459;SDS011;64039;53.060;9.342;2023-07-13T01:36:25;6.25;;;2.30;;
75459;SDS011;64039;53.060;9.342;2023-07-13T01:38:51;5.07;;;2.42;;
75459;SDS011;64039;53.060;9.342;2023-07-13T01:41:16;4.03;;;2.40;;
75459;SDS011;64039;53.060;9.342;2023-07-13T01:43:42;9.73;;;3.10;;
75459;SDS011;64039;53.060;9.342;2023-07-13T01:46:07;7.40;;;2.60;;
75459;SDS011;64039;53.060;9.342;2023-07-13T01:48:33;4.82;;;2.40;;
75459;SDS011;64039;53.060;9.342;2023-07-13T01:50:59;7.22;;;2.80;;
75459;SDS011;64039;53.060;9.342;2023-07-13T01:53:25;7.03;;;2.30;;
75459;SDS011;64039;53.060;9.342;2023-07-13T01:55:50;6.13;;;2.53;;
75459;SDS011;64039;53.060;9.342;2023-07-13T01:58:15;7.22;;;2.55;;
75459;SDS011;64039;53.060;9.342;2023-07-13T02:00:41;5.97;;;2.90;;
75459;SDS011;64039;53.060;9.342;2023-07-13T02:03:06;5.07;;;2.83;;
75459;SDS011;64039;53.060;9.342;2023-07-13T02:05:32;4.80;;;2.65;;
75459;SDS011;64039;53.060;9.342;2023-07-13T02:07:57;9.10;;;3.03;;
75459;SDS011;64039;53.060;9.342;2023-07-13T02:10:22;5.85;;;3.03;;
75459;SDS011;64039;53.060;9.342;2023-07-13T02:12:48;4.32;;;2.50;;
75459;SDS011;64039;53.060;9.342;2023-07-13T02:15:15;6.00;;;2.92;;
75459;SDS011;64039;53.060;9.342;2023-07-13T02:17:41;4.68;;;2.47;;
75459;SDS011;64039;53.060;9.342;2023-07-13T02:20:06;7.75;;;3.22;;
75459;SDS011;64039;53.060;9.342;2023-07-13T02:22:33;7.82;;;3.28;;
75459;SDS011;64039;53.060;9.342;2023-07-13T02:24:58;9.38;;;3.47;;
75459;SDS011;64039;53.060;9.342;2023-07-13T02:27:24;6.70;;;3.20;;
75459;SDS011;64039;53.060;9.342;2023-07-13T02:29:49;6.53;;;3.20;;
75459;SDS011;64039;53.060;9.342;2023-07-13T02:32:16;4.03;;;2.63;;
75459;SDS011;64039;53.060;9.342;2023-07-13T02:34:42;6.60;;;3.20;;
75459;SDS011;64039;53.060;9.342;2023-07-13T02:37:08;8.63;;;3.13;;
75459;SDS011;64039;53.060;9.342;2023-07-13T02:39:34;7.53;;;3.38;;
75459;SDS011;64039;53.060;9.342;2023-07-13T02:41:59;7.25;;;3.40;;
75459;SDS011;64039;53.060;9.342;2023-07-13T02:44:25;4.35;;;2.72;;
75459;SDS011;64039;53.060;9.342;2023-07-13T02:46:51;6.03;;;3.42;;
75459;SDS011;64039;53.060;9.342;2023-07-13T02:49:16;6.95;;;3.80;;
75459;SDS011;64039;53.060;9.342;2023-07-13T02:51:42;8.27;;;3.13;;
75459;SDS011;64039;53.060;9.342;2023-07-13T02:54:07;11.00;;;3.50;;
75459;SDS011;64039;53.060;9.342;2023-07-13T02:56:34;5.43;;;3.20;;
75459;SDS011;64039;53.060;9.342;2023-07-13T02:58:59;3.95;;;2.72;;
75459;SDS011;64039;53.060;9.342;2023-07-13T03:01:24;7.72;;;3.92;;
75459;SDS011;64039;53.060;9.342;2023-07-13T03:03:50;5.90;;;3.30;;
75459;SDS011;64039;53.060;9.342;2023-07-13T03:06:17;5.68;;;3.30;;
75459;SDS011;64039;53.060;9.342;2023-07-13T03:08:43;5.38;;;3.20;;
75459;SDS011;64039;53.060;9.342;2023-07-13T03:11:10;10.15;;;3.92;;
75459;SDS011;64039;53.060;9.342;2023-07-13T03:13:38;6.93;;;3.33;;
75459;SDS011;64039;53.060;9.342;2023-07-13T03:16:05;7.63;;;3.70;;
75459;SDS011;64039;53.060;9.342;2023-07-13T03:18:31;7.60;;;3.90;;
75459;SDS011;64039;53.060;9.342;2023-07-13T03:20:56;8.57;;;3.67;;
75459;SDS011;64039;53.060;9.342;2023-07-13T03:23:22;13.00;;;4.50;;
75459;SDS011;64039;53.060;9.342;2023-07-13T03:25:48;10.50;;;4.55;;
75459;SDS011;64039;53.060;9.342;2023-07-13T03:28:14;9.63;;;4.80;;
75459;SDS011;64039;53.060;9.342;2023-07-13T03:30:40;7.32;;;4.40;;
75459;SDS011;64039;53.060;9.342;2023-07-13T03:33:06;11.88;;;4.70;;
75459;SDS011;64039;53.060;9.342;2023-07-13T03:35:32;8.43;;;4.68;;
75459;SDS011;64039;53.060;9.342;2023-07-13T03:37:58;8.20;;;4.28;;
75459;SDS011;64039;53.060;9.342;2023-07-13T03:40:24;10.45;;;4.28;;
75459;SDS011;64039;53.060;9.342;2023-07-13T03:42:51;12.07;;;4.88;;
75459;SDS011;64039;53.060;9.342;2023-07-13T03:45:16;11.57;;;4.82;;
75459;SDS011;64039;53.060;9.342;2023-07-13T03:47:42;14.63;;;5.03;;
75459;SDS011;64039;53.060;9.342;2023-07-13T03:50:08;9.18;;;5.07;;
75459;SDS011;64039;53.060;9.342;2023-07-13T03:52:34;15.32;;;4.60;;
75459;SDS011;64039;53.060;9.342;2023-07-13T03:54:59;8.55;;;4.68;;
75459;SDS011;64039;53.060;9.342;2023-07-13T03:57:25;11.32;;;4.78;;
75459;SDS011;64039;53.060;9.342;2023-07-13T03:59:50;11.32;;;4.90;;
75459;SDS011;64039;53.060;9.342;2023-07-13T04:02:16;10.93;;;6.10;;
75459;SDS011;64039;53.060;9.342;2023-07-13T04:04:42;8.48;;;5.65;;
75459;SDS011;64039;53.060;9.342;2023-07-13T04:07:08;14.02;;;5.70;;
75459;SDS011;64039;53.060;9.342;2023-07-13T04:09:34;13.88;;;6.10;;
75459;SDS011;64039;53.060;9.342;2023-07-13T04:12:00;10.07;;;5.00;;
75459;SDS011;64039;53.060;9.342;2023-07-13T04:14:25;10.70;;;5.15;;
75459;SDS011;64039;53.060;9.342;2023-07-13T04:16:51;11.27;;;4.88;;
75459;SDS011;64039;53.060;9.342;2023-07-13T04:19:17;13.57;;;5.07;;
75459;SDS011;64039;53.060;9.342;2023-07-13T04:21:42;9.05;;;5.00;;
75459;SDS011;64039;53.060;9.342;2023-07-13T04:24:08;12.98;;;3.83;;
75459;SDS011;64039;53.060;9.342;2023-07-13T04:26:33;9.65;;;4.20;;
75459;SDS011;64039;53.060;9.342;2023-07-13T04:29:00;11.80;;;3.90;;
75459;SDS011;64039;53.060;9.342;2023-07-13T04:31:28;8.63;;;3.95;;
75459;SDS011;64039;53.060;9.342;2023-07-13T04:33:53;9.15;;;3.53;;
75459;SDS011;64039;53.060;9.342;2023-07-13T04:36:19;12.25;;;3.60;;
75459;SDS011;64039;53.060;9.342;2023-07-13T04:38:45;12.27;;;3.30;;
75459;SDS011;64039;53.060;9.342;2023-07-13T04:41:10;7.47;;;3.15;;
75459;SDS011;64039;53.060;9.342;2023-07-13T04:43:37;12.40;;;3.08;;
75459;SDS011;64039;53.060;9.342;2023-07-13T04:46:06;14.30;;;4.05;;
75459;SDS011;64039;53.060;9.342;2023-07-13T04:48:34;12.80;;;3.20;;
75459;SDS011;64039;53.060;9.342;2023-07-13T04:51:00;14.48;;;7.30;;
75459;SDS011;64039;53.060;9.342;2023-07-13T04:53:26;11.18;;;3.28;;
75459;SDS011;64039;53.060;9.342;2023-07-13T04:55:53;7.90;;;2.80;;
75459;SDS011;64039;53.060;9.342;2023-07-13T04:58:19;10.88;;;2.65;;
75459;SDS011;64039;53.060;9.342;2023-07-13T05:00:44;12.25;;;2.70;;
75459;SDS011;64039;53.060;9.342;2023-07-13T05:03:10;10.38;;;2.50;;
75459;SDS011;64039;53.060;9.342;2023-07-13T05:05:35;10.18;;;2.85;;
75459;SDS011;64039;53.060;9.342;2023-07-13T05:08:01;8.05;;;2.70;;
75459;SDS011;64039;53.060;9.342;2023-07-13T05:10:27;12.35;;;2.65;;
75459;SDS011;64039;53.060;9.342;2023-07-13T05:12:52;10.10;;;2.80;;
75459;SDS011;64039;53.060;9.342;2023-07-13T05:15:18;13.45;;;2.85;;
75459;SDS011;64039;53.060;9.342;2023-07-13T05:17:46;17.00;;;2.88;;
75459;SDS011;64039;53.060;9.342;2023-07-13T05:20:13;10.98;;;2.60;;
75459;SDS011;64039;53.060;9.342;2023-07-13T05:22:38;10.43;;;2.55;;
75459;SDS011;64039;53.060;9.342;2023-07-13T05:25:04;7.22;;;2.13;;
75459;SDS011;64039;53.060;9.342;2023-07-13T05:27:31;12.80;;;3.35;;
75459;SDS011;64039;53.060;9.342;2023-07-13T05:29:57;10.35;;;2.33;;
75459;SDS011;64039;53.060;9.342;2023-07-13T05:32:22;14.65;;;2.35;;
75459;SDS011;64039;53.060;9.342;2023-07-13T05:34:47;10.05;;;2.35;;
75459;SDS011;64039;53.060;9.342;2023-07-13T05:37:13;14.52;;;2.47;;
75459;SDS011;64039;53.060;9.342;2023-07-13T05:39:38;12.00;;;2.00;;
75459;SDS011;64039;53.060;9.342;2023-07-13T05:42:04;18.40;;;5.90;;
75459;SDS011;64039;53.060;9.342;2023-07-13T05:44:30;11.65;;;2.45;;
75459;SDS011;64039;53.060;9.342;2023-07-13T05:46:55;10.07;;;2.55;;
75459;SDS011;64039;53.060;9.342;2023-07-13T05:49:22;12.15;;;2.90;;
75459;SDS011;64039;53.060;9.342;2023-07-13T05:51:47;10.38;;;2.70;;
75459;SDS011;64039;53.060;9.342;2023-07-13T05:54:13;10.20;;;2.22;;
75459;SDS011;64039;53.060;9.342;2023-07-13T05:56:38;8.93;;;2.20;;
75459;SDS011;64039;53.060;9.342;2023-07-13T05:59:04;9.23;;;2.13;;
75459;SDS011;64039;53.060;9.342;2023-07-13T06:01:29;9.18;;;2.22;;
75459;SDS011;64039;53.060;9.342;2023-07-13T06:03:56;9.27;;;2.00;;
75459;SDS011;64039;53.060;9.342;2023-07-13T06:06:21;10.80;;;2.25;;
75459;SDS011;64039;53.060;9.342;2023-07-13T06:08:47;9.30;;;2.25;;
75459;SDS011;64039;53.060;9.342;2023-07-13T06:11:18;10.52;;;2.15;;
75459;SDS011;64039;53.060;9.342;2023-07-13T06:16:10;9.93;;;2.40;;
75459;SDS011;64039;53.060;9.342;2023-07-13T06:18:37;12.88;;;1.98;;
75459;SDS011;64039;53.060;9.342;2023-07-13T06:21:10;10.95;;;2.17;;
75459;SDS011;64039;53.060;9.342;2023-07-13T06:23:37;10.63;;;2.45;;
75459;SDS011;64039;53.060;9.342;2023-07-13T06:26:03;14.13;;;2.70;;
75459;SDS011;64039;53.060;9.342;2023-07-13T06:28:30;9.52;;;2.05;;
75459;SDS011;64039;53.060;9.342;2023-07-13T06:31:00;10.30;;;2.00;;
75459;SDS011;64039;53.060;9.342;2023-07-13T06:33:25;6.10;;;2.03;;
75459;SDS011;64039;53.060;9.342;2023-07-13T06:35:51;12.05;;;2.67;;
75459;SDS011;64039;53.060;9.342;2023-07-13T06:38:17;9.80;;;2.70;;
75459;SDS011;64039;53.060;9.342;2023-07-13T06:40:42;9.70;;;1.95;;
75459;SDS011;64039;53.060;9.342;2023-07-13T06:43:08;10.75;;;2.25;;
75459;SDS011;64039;53.060;9.342;2023-07-13T06:45:39;13.40;;;2.75;;
75459;SDS011;64039;53.060;9.342;2023-07-13T06:48:06;14.82;;;2.63;;
75459;SDS011;64039;53.060;9.342;2023-07-13T06:50:32;9.90;;;2.60;;
75459;SDS011;64039;53.060;9.342;2023-07-13T06:52:58;9.93;;;2.95;;
75459;SDS011;64039;53.060;9.342;2023-07-13T06:55:24;10.20;;;2.70;;
75459;SDS011;64039;53.060;9.342;2023-07-13T06:57:50;13.55;;;2.83;;
75459;SDS011;64039;53.060;9.342;2023-07-13T07:00:16;10.60;;;2.70;;
75459;SDS011;64039;53.060;9.342;2023-07-13T07:02:42;9.10;;;2.85;;
75459;SDS011;64039;53.060;9.342;2023-07-13T07:05:08;13.95;;;2.35;;
75459;SDS011;64039;53.060;9.342;2023-07-13T07:07:33;8.13;;;2.63;;
75459;SDS011;64039;53.060;9.342;2023-07-13T07:09:59;10.57;;;3.10;;
75459;SDS011;64039;53.060;9.342;2023-07-13T07:12:24;15.30;;;2.60;;
75459;SDS011;64039;53.060;9.342;2023-07-13T07:14:50;8.40;;;2.38;;
75459;SDS011;64039;53.060;9.342;2023-07-13T07:17:15;14.60;;;3.60;;
75459;SDS011;64039;53.060;9.342;2023-07-13T07:19:40;7.28;;;2.83;;
75459;SDS011;64039;53.060;9.342;2023-07-13T07:22:06;9.30;;;2.53;;
75459;SDS011;64039;53.060;9.342;2023-07-13T07:24:32;10.63;;;2.50;;
75459;SDS011;64039;53.060;9.342;2023-07-13T07:26:57;12.60;;;2.58;;
75459;SDS011;64039;53.060;9.342;2023-07-13T07:29:23;9.77;;;2.40;;
75459;SDS011;64039;53.060;9.342;2023-07-13T07:31:51;13.70;;;2.78;;
75459;SDS011;64039;53.060;9.342;2023-07-13T07:34:17;11.73;;;3.22;;
75459;SDS011;64039;53.060;9.342;2023-07-13T07:36:42;10.85;;;2.70;;
75459;SDS011;64039;53.060;9.342;2023-07-13T07:39:07;15.00;;;2.45;;
75459;SDS011;64039;53.060;9.342;2023-07-13T07:41:33;9.70;;;2.22;;
75459;SDS011;64039;53.060;9.342;2023-07-13T07:43:58;10.65;;;2.22;;
75459;SDS011;64039;53.060;9.342;2023-07-13T07:46:24;10.63;;;2.28;;
75459;SDS011;64039;53.060;9.342;2023-07-13T07:48:49;9.88;;;2.20;;
75459;SDS011;64039;53.060;9.342;2023-07-13T07:51:15;7.30;;;1.92;;
75459;SDS011;64039;53.060;9.342;2023-07-13T07:53:40;10.73;;;2.78;;
75459;SDS011;64039;53.060;9.342;2023-07-13T07:56:05;12.57;;;2.58;;
75459;SDS011;64039;53.060;9.342;2023-07-13T07:58:31;6.30;;;1.75;;
75459;SDS011;64039;53.060;9.342;2023-07-13T08:01:03;8.77;;;2.38;;
75459;SDS011;64039;53.060;9.342;2023-07-13T08:03:29;10.25;;;2.22;;
75459;SDS011;64039;53.060;9.342;2023-07-13T08:05:55;9.15;;;1.98;;
75459;SDS011;64039;53.060;9.342;2023-07-13T08:08:20;9.50;;;2.53;;
75459;SDS011;64039;53.060;9.342;2023-07-13T08:10:46;8.35;;;2.17;;
75459;SDS011;64039;53.060;9.342;2023-07-13T08:13:11;7.78;;;1.90;;
75459;SDS011;64039;53.060;9.342;2023-07-13T08:15:37;8.77;;;1.67;;
75459;SDS011;64039;53.060;9.342;2023-07-13T08:18:02;6.97;;;1.83;;
75459;SDS011;64039;53.060;9.342;2023-07-13T08:20:28;7.45;;;1.65;;
75459;SDS011;64039;53.060;9.342;2023-07-13T08:22:53;8.10;;;1.65;;
75459;SDS011;64039;53.060;9.342;2023-07-13T08:25:19;6.57;;;1.50;;
75459;SDS011;64039;53.060;9.342;2023-07-13T08:27:45;6.68;;;1.80;;
75459;SDS011;64039;53.060;9.342;2023-07-13T08:30:11;9.75;;;2.08;;
75459;SDS011;64039;53.060;9.342;2023-07-13T08:32:36;4.13;;;1.70;;
75459;SDS011;64039;53.060;9.342;2023-07-13T08:35:03;5.32;;;1.92;;
75459;SDS011;64039;53.060;9.342;2023-07-13T08:37:29;7.25;;;2.00;;
75459;SDS011;64039;53.060;9.342;2023-07-13T08:39:54;6.47;;;2.05;;
75459;SDS011;64039;53.060;9.342;2023-07-13T08:45:21;4.40;;;1.70;;
75459;SDS011;64039;53.060;9.342;2023-07-13T08:47:57;8.88;;;2.05;;
75459;SDS011;64039;53.060;9.342;2023-07-13T08:50:47;8.40;;;2.17;;
75459;SDS011;64039;53.060;9.342;2023-07-13T08:53:19;7.38;;;1.80;;
75459;SDS011;64039;53.060;9.342;2023-07-13T08:55:48;10.02;;;2.10;;
75459;SDS011;64039;53.060;9.342;2023-07-13T08:58:24;10.57;;;1.98;;
75459;SDS011;64039;53.060;9.342;2023-07-13T09:04:12;6.82;;;2.13;;
75459;SDS011;64039;53.060;9.342;2023-07-13T09:12:02;5.70;;;2.00;;
75459;SDS011;64039;53.060;9.342;2023-07-13T09:14:50;7.68;;;2.10;;
75459;SDS011;64039;53.060;9.342;2023-07-13T09:17:21;10.93;;;2.53;;
75459;SDS011;64039;53.060;9.342;2023-07-13T09:22:48;7.90;;;1.90;;
75459;SDS011;64039;53.060;9.342;2023-07-13T09:25:26;10.15;;;2.60;;
75459;SDS011;64039;53.060;9.342;2023-07-13T09:27:56;7.53;;;2.50;;
75459;SDS011;64039;53.060;9.342;2023-07-13T09:30:36;5.22;;;2.00;;
75459;SDS011;64039;53.060;9.342;2023-07-13T09:33:05;6.60;;;2.10;;
75459;SDS011;64039;53.060;9.342;2023-07-13T09:35:31;7.22;;;2.13;;
75459;SDS011;64039;53.060;9.342;2023-07-13T09:37:58;9.00;;;2.20;;
75459;SDS011;64039;53.060;9.342;2023-07-13T09:43:19;4.82;;;1.90;;
75459;SDS011;64039;53.060;9.342;2023-07-13T09:45:47;7.63;;;1.90;;
75459;SDS011;64039;53.060;9.342;2023-07-13T09:48:14;8.25;;;2.20;;
75459;SDS011;64039;53.060;9.342;2023-07-13T09:50:41;9.75;;;2.10;;
75459;SDS011;64039;53.060;9.342;2023-07-13T09:53:18;5.53;;;2.00;;
75459;SDS011;64039;53.060;9.342;2023-07-13T09:55:45;6.13;;;1.67;;
75459;SDS011;64039;53.060;9.342;2023-07-13T09:58:13;8.68;;;2.35;;
75459;SDS011;64039;53.060;9.342;2023-07-13T10:00:41;6.75;;;2.30;;
75459;SDS011;64039;53.060;9.342;2023-07-13T10:03:19;5.75;;;2.20;;
75459;SDS011;64039;53.060;9.342;2023-07-13T10:05:48;6.30;;;2.00;;
75459;SDS011;64039;53.060;9.342;2023-07-13T10:08:19;7.28;;;1.75;;
75459;SDS011;64039;53.060;9.342;2023-07-13T10:10:51;6.63;;;2.45;;
75459;SDS011;64039;53.060;9.342;2023-07-13T10:13:31;10.55;;;2.30;;
75459;SDS011;64039;53.060;9.342;2023-07-13T10:16:01;6.78;;;1.98;;
75459;SDS011;64039;53.060;9.342;2023-07-13T10:18:31;5.82;;;2.08;;
75459;SDS011;64039;53.060;9.342;2023-07-13T10:21:16;9.90;;;1.88;;
75459;SDS011;64039;53.060;9.342;2023-07-13T10:23:47;5.10;;;1.83;;
75459;SDS011;64039;53.060;9.342;2023-07-13T10:26:21;7.13;;;2.28;;
75459;SDS011;64039;53.060;9.342;2023-07-13T10:28:52;5.13;;;1.65;;
75459;SDS011;64039;53.060;9.342;2023-07-13T10:31:21;4.97;;;1.70;;
75459;SDS011;64039;53.060;9.342;2023-07-13T10:33:49;4.97;;;1.75;;
75459;SDS011;64039;53.060;9.342;2023-07-13T10:36:19;6.13;;;1.55;;
75459;SDS011;64039;53.060;9.342;2023-07-13T10:38:52;5.05;;;1.33;;
75459;SDS011;64039;53.060;9.342;2023-07-13T10:41:21;5.57;;;2.15;;
75459;SDS011;64039;53.060;9.342;2023-07-13T10:43:50;3.28;;;1.52;;
75459;SDS011;64039;53.060;9.342;2023-07-13T10:46:19;5.55;;;1.70;;
75459;SDS011;64039;53.060;9.342;2023-07-13T10:48:49;4.57;;;1.60;;
75459;SDS011;64039;53.060;9.342;2023-07-13T10:51:18;6.93;;;2.20;;
75459;SDS011;64039;53.060;9.342;2023-07-13T10:54:10;5.07;;;1.60;;
75459;SDS011;64039;53.060;9.342;2023-07-13T10:56:36;4.45;;;1.25;;
75459;SDS011;64039;53.060;9.342;2023-07-13T10:59:12;4.93;;;1.50;;
75459;SDS011;64039;53.060;9.342;2023-07-13T11:01:46;7.60;;;1.90;;
75459;SDS011;64039;53.060;9.342;2023-07-13T11:04:19;7.53;;;2.22;;
75459;SDS011;64039;53.060;9.342;2023-07-13T11:06:46;5.63;;;1.95;;
75459;SDS011;64039;53.060;9.342;2023-07-13T11:12:48;5.40;;;1.45;;
75459;SDS011;64039;53.060;9.342;2023-07-13T11:15:15;5.57;;;2.00;;
75459;SDS011;64039;53.060;9.342;2023-07-13T11:17:54;4.28;;;1.80;;
75459;SDS011;64039;53.060;9.342;2023-07-13T11:20:35;3.90;;;1.63;;
75459;SDS011;64039;53.060;9.342;2023-07-13T11:25:35;7.78;;;1.65;;
75459;SDS011;64039;53.060;9.342;2023-07-13T11:28:11;7.00;;;1.67;;
75459;SDS011;64039;53.060;9.342;2023-07-13T11:33:28;5.25;;;1.70;;
75459;SDS011;64039;53.060;9.342;2023-07-13T11:36:18;5.53;;;1.33;;
75459;SDS011;64039;53.060;9.342;2023-07-13T11:41:50;4.03;;;1.10;;
75459;SDS011;64039;53.060;9.342;2023-07-13T11:44:19;2.60;;;1.20;;
75459;SDS011;64039;53.060;9.342;2023-07-13T11:46:47;5.15;;;1.80;;
75459;SDS011;64039;53.060;9.342;2023-07-13T11:49:24;4.28;;;1.40;;
75459;SDS011;64039;53.060;9.342;2023-07-13T11:51:52;6.50;;;1.88;;
75459;SDS011;64039;53.060;9.342;2023-07-13T11:56:54;4.90;;;2.17;;
75459;SDS011;64039;53.060;9.342;2023-07-13T11:59:23;3.72;;;2.00;;
75459;SDS011;64039;53.060;9.342;2023-07-13T12:01:51;7.30;;;2.20;;
75459;SDS011;64039;53.060;9.342;2023-07-13T12:04:20;4.70;;;1.90;;
75459;SDS011;64039;53.060;9.342;2023-07-13T12:06:54;3.05;;;1.85;;
75459;SDS011;64039;53.060;9.342;2023-07-13T12:09:21;3.80;;;2.03;;
75459;SDS011;64039;53.060;9.342;2023-07-13T12:11:50;5.43;;;2.25;;
75459;SDS011;64039;53.060;9.342;2023-07-13T12:14:16;5.65;;;2.15;;
75459;SDS011;64039;53.060;9.342;2023-07-13T12:16:43;3.38;;;2.15;;
75459;SDS011;64039;53.060;9.342;2023-07-13T12:19:21;6.60;;;2.70;;
75459;SDS011;64039;53.060;9.342;2023-07-13T12:21:48;6.00;;;2.55;;
75459;SDS011;64039;53.060;9.342;2023-07-13T12:24:18;4.75;;;2.50;;
75459;SDS011;64039;53.060;9.342;2023-07-13T12:26:50;4.13;;;2.20;;
75459;SDS011;64039;53.060;9.342;2023-07-13T12:29:18;5.18;;;2.15;;
75459;SDS011;64039;53.060;9.342;2023-07-13T12:31:44;5.35;;;2.00;;
75459;SDS011;64039;53.060;9.342;2023-07-13T12:34:13;6.40;;;1.63;;
75459;SDS011;64039;53.060;9.342;2023-07-13T12:36:58;3.67;;;1.65;;
75459;SDS011;64039;53.060;9.342;2023-07-13T12:42:21;3.85;;;1.63;;
75459;SDS011;64039;53.060;9.342;2023-07-13T12:45:05;4.22;;;1.73;;
75459;SDS011;64039;53.060;9.342;2023-07-13T12:47:43;2.17;;;1.58;;
75459;SDS011;64039;53.060;9.342;2023-07-13T12:50:17;3.75;;;1.40;;
75459;SDS011;64039;53.060;9.342;2023-07-13T12:52:49;4.97;;;1.60;;
75459;SDS011;64039;53.060;9.342;2023-07-13T12:55:18;5.05;;;1.73;;
75459;SDS011;64039;53.060;9.342;2023-07-13T12:57:51;3.03;;;1.73;;
75459;SDS011;64039;53.060;9.342;2023-07-13T13:05:38;4.15;;;2.45;;
75459;SDS011;64039;53.060;9.342;2023-07-13T13:08:04;4.30;;;1.60;;
75459;SDS011;64039;53.060;9.342;2023-07-13T13:10:30;2.40;;;1.42;;
75459;SDS011;64039;53.060;9.342;2023-07-13T13:12:55;3.08;;;1.75;;
75459;SDS011;64039;53.060;9.342;2023-07-13T13:15:21;3.53;;;1.70;;
75459;SDS011;64039;53.060;9.342;2023-07-13T13:17:47;2.03;;;1.67;;
75459;SDS011;64039;53.060;9.342;2023-07-13T13:20:14;3.92;;;1.85;;
75459;SDS011;64039;53.060;9.342;2023-07-13T13:22:41;3.00;;;2.17;;
75459;SDS011;64039;53.060;9.342;2023-07-13T13:25:09;5.20;;;1.85;;
75459;SDS011;64039;53.060;9.342;2023-07-13T13:27:39;2.63;;;1.60;;
75459;SDS011;64039;53.060;9.342;2023-07-13T13:30:11;3.65;;;1.77;;
75459;SDS011;64039;53.060;9.342;2023-07-13T13:32:39;2.42;;;1.38;;
75459;SDS011;64039;53.060;9.342;2023-07-13T13:35:05;2.70;;;1.30;;
75459;SDS011;64039;53.060;9.342;2023-07-13T13:37:37;2.38;;;1.25;;
75459;SDS011;64039;53.060;9.342;2023-07-13T13:40:04;3.78;;;1.23;;
75459;SDS011;64039;53.060;9.342;2023-07-13T13:42:38;2.42;;;1.17;;
75459;SDS011;64039;53.060;9.342;2023-07-13T13:45:04;1.80;;;1.20;;
75459;SDS011;64039;53.060;9.342;2023-07-13T13:47:31;2.75;;;1.30;;
75459;SDS011;64039;53.060;9.342;2023-07-13T13:49:58;2.05;;;1.13;;
75459;SDS011;64039;53.060;9.342;2023-07-13T13:52:25;10.55;;;7.07;;
75459;SDS011;64039;53.060;9.342;2023-07-13T13:54:51;7.30;;;4.30;;
75459;SDS011;64039;53.060;9.342;2023-07-13T13:57:21;2.13;;;1.00;;
75459;SDS011;64039;53.060;9.342;2023-07-13T13:59:54;1.52;;;0.93;;
75459;SDS011;64039;53.060;9.342;2023-07-13T14:02:22;1.77;;;1.15;;
75459;SDS011;64039;53.060;9.342;2023-07-13T14:04:52;3.10;;;2.38;;
75459;SDS011;64039;53.060;9.342;2023-07-13T14:07:20;3.05;;;1.05;;
75459;SDS011;64039;53.060;9.342;2023-07-13T14:09:45;3.33;;;1.30;;
75459;SDS011;64039;53.060;9.342;2023-07-13T14:12:11;2.92;;;2.17;;
75459;SDS011;64039;53.060;9.342;2023-07-13T14:14:37;2.03;;;0.90;;
75459;SDS011;64039;53.060;9.342;2023-07-13T14:17:03;1.85;;;1.00;;
75459;SDS011;64039;53.060;9.342;2023-07-13T14:19:29;2.90;;;1.95;;
75459;SDS011;64039;53.060;9.342;2023-07-13T14:21:55;2.20;;;1.40;;
75459;SDS011;64039;53.060;9.342;2023-07-13T14:24:20;2.42;;;1.40;;
75459;SDS011;64039;53.060;9.342;2023-07-13T14:26:46;2.45;;;1.30;;
75459;SDS011;64039;53.060;9.342;2023-07-13T14:29:16;2.17;;;1.67;;
75459;SDS011;64039;53.060;9.342;2023-07-13T14:31:44;1.80;;;1.10;;
75459;SDS011;64039;53.060;9.342;2023-07-13T14:34:10;2.42;;;1.25;;
75459;SDS011;64039;53.060;9.342;2023-07-13T14:36:38;4.00;;;1.25;;
75459;SDS011;64039;53.060;9.342;2023-07-13T14:39:10;2.33;;;1.08;;
75459;SDS011;64039;53.060;9.342;2023-07-13T14:41:39;1.60;;;1.05;;
75459;SDS011;64039;53.060;9.342;2023-07-13T14:44:14;1.40;;;0.90;;
75459;SDS011;64039;53.060;9.342;2023-07-13T14:46:41;2.63;;;1.35;;
75459;SDS011;64039;53.060;9.342;2023-07-13T14:49:24;2.47;;;1.23;;
75459;SDS011;64039;53.060;9.342;2023-07-13T14:51:55;2.13;;;1.10;;
75459;SDS011;64039;53.060;9.342;2023-07-13T14:54:23;3.33;;;1.33;;
75459;SDS011;64039;53.060;9.342;2023-07-13T14:56:49;1.40;;;1.10;;
75459;SDS011;64039;53.060;9.342;2023-07-13T14:59:15;1.70;;;1.20;;
75459;SDS011;64039;53.060;9.342;2023-07-13T15:01:43;2.78;;;1.20;;
75459;SDS011;64039;53.060;9.342;2023-07-13T15:04:10;5.38;;;1.30;;
75459;SDS011;64039;53.060;9.342;2023-07-13T15:06:52;3.72;;;1.38;;
75459;SDS011;64039;53.060;9.342;2023-07-13T15:09:19;2.80;;;1.42;;
75459;SDS011;64039;53.060;9.342;2023-07-13T15:11:44;5.53;;;2.00;;
75459;SDS011;64039;53.060;9.342;2023-07-13T15:14:10;13.50;;;8.77;;
75459;SDS011;64039;53.060;9.342;2023-07-13T15:16:35;8.38;;;5.85;;
75459;SDS011;64039;53.060;9.342;2023-07-13T15:19:01;7.88;;;2.53;;
75459;SDS011;64039;53.060;9.342;2023-07-13T15:21:27;4.70;;;2.13;;
75459;SDS011;64039;53.060;9.342;2023-07-13T15:23:59;3.42;;;2.03;;
75459;SDS011;64039;53.060;9.342;2023-07-13T15:26:26;3.92;;;1.90;;
75459;SDS011;64039;53.060;9.342;2023-07-13T15:28:51;6.32;;;4.07;;
75459;SDS011;64039;53.060;9.342;2023-07-13T15:31:24;8.35;;;5.10;;
75459;SDS011;64039;53.060;9.342;2023-07-13T15:33:53;7.28;;;2.20;;